sensor_id;sensor_type;location;lat;lon;timestamp;P1;durP1;ratioP1;P2;durP2;ratioP2
6185;SDS011;3126;52.738;8.316;2023-09-30T00:01:23;15.27;;;4.10;;
6185;SDS011;3126;52.738;8.316;2023-09-30T00:06:24;12.65;;;3.88;;
6185;SDS011;3126;52.738;8.316;2023-09-30T00:11:25;14.68;;;3.72;;
6185;SDS011;3126;52.738;8.316;2023-09-30T00:16:26;12.10;;;3.72;;
6185;SDS011;3126;52.738;8.316;2023-09-30T00:21:27;14.77;;;4.47;;
6185;SDS011;3126;52.738;8.316;2023-09-30T00:26:28;14.75;;;4.45;;
6185;SDS011;3126;52.738;8.316;2023-09-30T00:31:29;12.80;;;4.15;;
6185;SDS011;3126;52.738;8.316;2023-09-30T00:36:30;11.55;;;3.95;;
6185;SDS011;3126;52.738;8.316;2023-09-30T00:41:31;10.73;;;3.92;;
6185;SDS011;3126;52.738;8.316;2023-09-30T00:46:33;15.85;;;4.80;;
6185;SDS011;3126;52.738;8.316;2023-09-30T00:51:36;13.23;;;4.40;;
6185;SDS011;3126;52.738;8.316;2023-09-30T00:56:39;13.20;;;5.18;;
6185;SDS011;3126;52.738;8.316;2023-09-30T01:01:44;12.07;;;4.25;;
6185;SDS011;3126;52.738;8.316;2023-09-30T01:06:46;12.98;;;3.85;;
6185;SDS011;3126;52.738;8.316;2023-09-30T01:11:47;11.18;;;4.30;;
6185;SDS011;3126;52.738;8.316;2023-09-30T01:16:48;16.95;;;5.00;;
6185;SDS011;3126;52.738;8.316;2023-09-30T01:21:50;14.50;;;4.65;;
6185;SDS011;3126;52.738;8.316;2023-09-30T01:26:51;11.73;;;3.97;;
6185;SDS011;3126;52.738;8.316;2023-09-30T01:31:52;12.60;;;3.83;;
6185;SDS011;3126;52.738;8.316;2023-09-30T01:36:53;12.23;;;4.10;;
6185;SDS011;3126;52.738;8.316;2023-09-30T01:41:54;14.10;;;3.97;;
6185;SDS011;3126;52.738;8.316;2023-09-30T01:46:55;17.75;;;4.35;;
6185;SDS011;3126;52.738;8.316;2023-09-30T01:51:56;10.05;;;3.80;;
6185;SDS011;3126;52.738;8.316;2023-09-30T01:56:58;12.02;;;3.88;;
6185;SDS011;3126;52.738;8.316;2023-09-30T02:01:58;15.15;;;3.72;;
6185;SDS011;3126;52.738;8.316;2023-09-30T02:06:59;13.80;;;4.15;;
6185;SDS011;3126;52.738;8.316;2023-09-30T02:12:00;11.43;;;4.15;;
6185;SDS011;3126;52.738;8.316;2023-09-30T02:17:02;11.50;;;3.60;;
6185;SDS011;3126;52.738;8.316;2023-09-30T02:22:03;13.00;;;3.90;;
6185;SDS011;3126;52.738;8.316;2023-09-30T02:27:04;16.98;;;4.60;;
6185;SDS011;3126;52.738;8.316;2023-09-30T02:32:05;14.70;;;4.10;;
6185;SDS011;3126;52.738;8.316;2023-09-30T02:37:06;12.10;;;4.15;;
6185;SDS011;3126;52.738;8.316;2023-09-30T02:42:07;15.68;;;4.60;;
6185;SDS011;3126;52.738;8.316;2023-09-30T02:47:08;15.70;;;3.80;;
6185;SDS011;3126;52.738;8.316;2023-09-30T02:52:09;10.70;;;3.72;;
6185;SDS011;3126;52.738;8.316;2023-09-30T02:57:10;15.55;;;3.83;;
6185;SDS011;3126;52.738;8.316;2023-09-30T03:02:11;11.25;;;4.00;;
6185;SDS011;3126;52.738;8.316;2023-09-30T03:07:12;15.85;;;4.93;;
6185;SDS011;3126;52.738;8.316;2023-09-30T03:12:14;16.17;;;4.45;;
6185;SDS011;3126;52.738;8.316;2023-09-30T03:17:15;12.15;;;4.45;;
6185;SDS011;3126;52.738;8.316;2023-09-30T03:22:17;11.27;;;4.63;;
6185;SDS011;3126;52.738;8.316;2023-09-30T03:27:18;11.57;;;3.92;;
6185;SDS011;3126;52.738;8.316;2023-09-30T03:32:20;11.73;;;4.28;;
6185;SDS011;3126;52.738;8.316;2023-09-30T03:37:21;14.23;;;4.65;;
6185;SDS011;3126;52.738;8.316;2023-09-30T03:42:22;18.13;;;5.28;;
6185;SDS011;3126;52.738;8.316;2023-09-30T03:47:23;14.90;;;4.35;;
6185;SDS011;3126;52.738;8.316;2023-09-30T03:52:24;12.57;;;4.40;;
6185;SDS011;3126;52.738;8.316;2023-09-30T03:57:26;11.55;;;4.53;;
6185;SDS011;3126;52.738;8.316;2023-09-30T04:02:28;13.98;;;4.63;;
6185;SDS011;3126;52.738;8.316;2023-09-30T04:07:29;14.43;;;4.88;;
6185;SDS011;3126;52.738;8.316;2023-09-30T04:12:30;10.70;;;4.35;;
6185;SDS011;3126;52.738;8.316;2023-09-30T04:17:32;11.60;;;4.43;;
6185;SDS011;3126;52.738;8.316;2023-09-30T04:22:33;22.80;;;4.75;;
6185;SDS011;3126;52.738;8.316;2023-09-30T04:27:35;14.82;;;4.72;;
6185;SDS011;3126;52.738;8.316;2023-09-30T04:32:37;12.25;;;4.30;;
6185;SDS011;3126;52.738;8.316;2023-09-30T04:37:38;11.90;;;4.63;;
6185;SDS011;3126;52.738;8.316;2023-09-30T04:42:39;14.05;;;5.88;;
6185;SDS011;3126;52.738;8.316;2023-09-30T04:47:40;11.32;;;4.20;;
6185;SDS011;3126;52.738;8.316;2023-09-30T04:52:41;12.07;;;4.55;;
6185;SDS011;3126;52.738;8.316;2023-09-30T04:57:43;12.40;;;4.72;;
6185;SDS011;3126;52.738;8.316;2023-09-30T05:02:45;16.10;;;4.68;;
6185;SDS011;3126;52.738;8.316;2023-09-30T05:07:46;16.13;;;5.25;;
6185;SDS011;3126;52.738;8.316;2023-09-30T05:12:50;18.05;;;5.30;;
6185;SDS011;3126;52.738;8.316;2023-09-30T05:17:54;13.70;;;4.90;;
6185;SDS011;3126;52.738;8.316;2023-09-30T05:22:55;10.57;;;4.38;;
6185;SDS011;3126;52.738;8.316;2023-09-30T05:27:56;16.42;;;5.22;;
6185;SDS011;3126;52.738;8.316;2023-09-30T05:32:57;12.40;;;4.60;;
6185;SDS011;3126;52.738;8.316;2023-09-30T05:37:58;14.75;;;4.72;;
6185;SDS011;3126;52.738;8.316;2023-09-30T05:42:59;20.98;;;5.90;;
6185;SDS011;3126;52.738;8.316;2023-09-30T05:48:01;10.65;;;4.22;;
6185;SDS011;3126;52.738;8.316;2023-09-30T05:53:05;14.93;;;6.32;;
6185;SDS011;3126;52.738;8.316;2023-09-30T05:58:06;11.68;;;4.53;;
6185;SDS011;3126;52.738;8.316;2023-09-30T06:03:07;15.48;;;5.82;;
6185;SDS011;3126;52.738;8.316;2023-09-30T06:08:09;13.55;;;5.20;;
6185;SDS011;3126;52.738;8.316;2023-09-30T06:13:13;15.07;;;6.35;;
6185;SDS011;3126;52.738;8.316;2023-09-30T06:18:15;14.70;;;5.03;;
6185;SDS011;3126;52.738;8.316;2023-09-30T06:23:16;11.25;;;4.53;;
6185;SDS011;3126;52.738;8.316;2023-09-30T06:28:17;12.15;;;4.55;;
6185;SDS011;3126;52.738;8.316;2023-09-30T06:33:25;18.00;;;4.97;;
6185;SDS011;3126;52.738;8.316;2023-09-30T06:38:29;11.25;;;4.28;;
6185;SDS011;3126;52.738;8.316;2023-09-30T06:43:31;15.55;;;5.80;;
6185;SDS011;3126;52.738;8.316;2023-09-30T06:48:33;16.02;;;5.90;;
6185;SDS011;3126;52.738;8.316;2023-09-30T06:53:34;12.95;;;5.78;;
6185;SDS011;3126;52.738;8.316;2023-09-30T06:58:35;14.95;;;5.18;;
6185;SDS011;3126;52.738;8.316;2023-09-30T07:03:36;12.07;;;5.30;;
6185;SDS011;3126;52.738;8.316;2023-09-30T07:08:37;12.38;;;5.43;;
6185;SDS011;3126;52.738;8.316;2023-09-30T07:13:38;12.40;;;5.55;;
6185;SDS011;3126;52.738;8.316;2023-09-30T07:18:38;13.98;;;5.88;;
6185;SDS011;3126;52.738;8.316;2023-09-30T07:23:39;16.60;;;5.50;;
6185;SDS011;3126;52.738;8.316;2023-09-30T07:28:41;19.00;;;6.80;;
6185;SDS011;3126;52.738;8.316;2023-09-30T07:33:42;15.60;;;6.68;;
6185;SDS011;3126;52.738;8.316;2023-09-30T07:38:43;15.20;;;7.40;;
6185;SDS011;3126;52.738;8.316;2023-09-30T07:43:44;15.20;;;6.07;;
6185;SDS011;3126;52.738;8.316;2023-09-30T07:48:44;12.60;;;6.15;;
6185;SDS011;3126;52.738;8.316;2023-09-30T07:53:45;11.55;;;5.82;;
6185;SDS011;3126;52.738;8.316;2023-09-30T07:58:46;12.50;;;5.82;;
6185;SDS011;3126;52.738;8.316;2023-09-30T08:03:48;13.82;;;6.28;;
6185;SDS011;3126;52.738;8.316;2023-09-30T08:08:49;9.82;;;5.68;;
6185;SDS011;3126;52.738;8.316;2023-09-30T08:13:50;12.48;;;6.22;;
6185;SDS011;3126;52.738;8.316;2023-09-30T08:18:51;13.15;;;5.82;;
6185;SDS011;3126;52.738;8.316;2023-09-30T08:23:52;14.85;;;6.38;;
6185;SDS011;3126;52.738;8.316;2023-09-30T08:28:54;14.65;;;5.53;;
6185;SDS011;3126;52.738;8.316;2023-09-30T08:33:55;16.20;;;6.47;;
6185;SDS011;3126;52.738;8.316;2023-09-30T08:38:56;11.85;;;5.72;;
6185;SDS011;3126;52.738;8.316;2023-09-30T08:43:59;14.48;;;5.68;;
6185;SDS011;3126;52.738;8.316;2023-09-30T08:49:01;10.88;;;4.90;;
6185;SDS011;3126;52.738;8.316;2023-09-30T08:54:03;10.60;;;5.18;;
6185;SDS011;3126;52.738;8.316;2023-09-30T08:59:05;11.45;;;5.75;;
6185;SDS011;3126;52.738;8.316;2023-09-30T09:04:06;8.98;;;5.20;;
6185;SDS011;3126;52.738;8.316;2023-09-30T09:09:14;12.35;;;5.28;;
6185;SDS011;3126;52.738;8.316;2023-09-30T09:14:19;11.30;;;5.32;;
6185;SDS011;3126;52.738;8.316;2023-09-30T09:19:20;10.50;;;5.22;;
6185;SDS011;3126;52.738;8.316;2023-09-30T09:24:28;11.18;;;5.38;;
6185;SDS011;3126;52.738;8.316;2023-09-30T09:29:29;10.50;;;5.05;;
6185;SDS011;3126;52.738;8.316;2023-09-30T09:34:30;11.02;;;4.88;;
6185;SDS011;3126;52.738;8.316;2023-09-30T09:39:30;8.68;;;5.03;;
6185;SDS011;3126;52.738;8.316;2023-09-30T09:44:32;11.25;;;5.22;;
6185;SDS011;3126;52.738;8.316;2023-09-30T09:49:34;10.30;;;4.05;;
6185;SDS011;3126;52.738;8.316;2023-09-30T09:54:35;6.80;;;4.35;;
6185;SDS011;3126;52.738;8.316;2023-09-30T09:59:39;8.70;;;4.28;;
6185;SDS011;3126;52.738;8.316;2023-09-30T10:04:49;9.80;;;4.30;;
6185;SDS011;3126;52.738;8.316;2023-09-30T10:09:50;9.13;;;3.53;;
6185;SDS011;3126;52.738;8.316;2023-09-30T10:14:52;8.95;;;3.10;;
6185;SDS011;3126;52.738;8.316;2023-09-30T10:20:06;8.23;;;3.45;;
6185;SDS011;3126;52.738;8.316;2023-09-30T10:30:27;10.00;;;2.75;;
6185;SDS011;3126;52.738;8.316;2023-09-30T10:40:31;6.22;;;2.85;;
6185;SDS011;3126;52.738;8.316;2023-09-30T10:50:50;5.80;;;2.38;;
6185;SDS011;3126;52.738;8.316;2023-09-30T10:55:55;6.45;;;2.30;;
6185;SDS011;3126;52.738;8.316;2023-09-30T11:00:57;7.95;;;2.65;;
6185;SDS011;3126;52.738;8.316;2023-09-30T11:05:58;6.38;;;2.20;;
6185;SDS011;3126;52.738;8.316;2023-09-30T11:10:59;7.20;;;2.40;;
6185;SDS011;3126;52.738;8.316;2023-09-30T11:16:04;9.35;;;2.92;;
6185;SDS011;3126;52.738;8.316;2023-09-30T11:21:05;6.10;;;3.08;;
6185;SDS011;3126;52.738;8.316;2023-09-30T11:26:07;6.68;;;2.47;;
6185;SDS011;3126;52.738;8.316;2023-09-30T11:31:09;9.30;;;2.95;;
6185;SDS011;3126;52.738;8.316;2023-09-30T11:36:11;7.78;;;2.50;;
6185;SDS011;3126;52.738;8.316;2023-09-30T11:41:13;7.80;;;3.17;;
6185;SDS011;3126;52.738;8.316;2023-09-30T11:46:14;6.47;;;2.40;;
6185;SDS011;3126;52.738;8.316;2023-09-30T11:51:16;6.05;;;2.10;;
6185;SDS011;3126;52.738;8.316;2023-09-30T11:56:17;5.97;;;2.60;;
6185;SDS011;3126;52.738;8.316;2023-09-30T12:01:18;8.63;;;2.40;;
6185;SDS011;3126;52.738;8.316;2023-09-30T12:06:22;5.63;;;2.67;;
6185;SDS011;3126;52.738;8.316;2023-09-30T12:11:23;9.20;;;2.83;;
6185;SDS011;3126;52.738;8.316;2023-09-30T12:16:24;7.57;;;2.83;;
6185;SDS011;3126;52.738;8.316;2023-09-30T12:21:25;8.52;;;2.55;;
6185;SDS011;3126;52.738;8.316;2023-09-30T12:26:26;7.35;;;3.40;;
6185;SDS011;3126;52.738;8.316;2023-09-30T12:31:27;6.18;;;3.38;;
6185;SDS011;3126;52.738;8.316;2023-09-30T12:36:28;5.25;;;2.53;;
6185;SDS011;3126;52.738;8.316;2023-09-30T12:41:29;6.20;;;2.75;;
6185;SDS011;3126;52.738;8.316;2023-09-30T12:46:33;5.35;;;2.78;;
6185;SDS011;3126;52.738;8.316;2023-09-30T12:51:36;7.88;;;3.08;;
6185;SDS011;3126;52.738;8.316;2023-09-30T12:56:37;9.93;;;3.13;;
6185;SDS011;3126;52.738;8.316;2023-09-30T13:01:38;8.52;;;3.20;;
6185;SDS011;3126;52.738;8.316;2023-09-30T13:06:39;7.85;;;2.65;;
6185;SDS011;3126;52.738;8.316;2023-09-30T13:11:41;7.93;;;2.03;;
6185;SDS011;3126;52.738;8.316;2023-09-30T13:16:42;6.97;;;2.25;;
6185;SDS011;3126;52.738;8.316;2023-09-30T13:21:44;8.13;;;2.78;;
6185;SDS011;3126;52.738;8.316;2023-09-30T13:26:46;7.45;;;2.70;;
6185;SDS011;3126;52.738;8.316;2023-09-30T13:31:47;5.80;;;2.35;;
6185;SDS011;3126;52.738;8.316;2023-09-30T13:36:47;7.35;;;2.40;;
6185;SDS011;3126;52.738;8.316;2023-09-30T13:41:48;7.68;;;2.80;;
6185;SDS011;3126;52.738;8.316;2023-09-30T13:46:49;9.18;;;2.72;;
6185;SDS011;3126;52.738;8.316;2023-09-30T13:51:50;7.75;;;2.90;;
6185;SDS011;3126;52.738;8.316;2023-09-30T13:56:51;7.07;;;2.58;;
6185;SDS011;3126;52.738;8.316;2023-09-30T14:01:52;7.82;;;2.60;;
6185;SDS011;3126;52.738;8.316;2023-09-30T14:06:53;7.22;;;2.90;;
6185;SDS011;3126;52.738;8.316;2023-09-30T14:11:54;5.93;;;2.65;;
6185;SDS011;3126;52.738;8.316;2023-09-30T14:16:55;6.53;;;2.45;;
6185;SDS011;3126;52.738;8.316;2023-09-30T14:21:56;8.82;;;2.60;;
6185;SDS011;3126;52.738;8.316;2023-09-30T14:26:58;6.75;;;2.00;;
6185;SDS011;3126;52.738;8.316;2023-09-30T14:31:59;8.88;;;2.72;;
6185;SDS011;3126;52.738;8.316;2023-09-30T14:37:00;9.52;;;2.60;;
6185;SDS011;3126;52.738;8.316;2023-09-30T14:42:01;11.40;;;2.95;;
6185;SDS011;3126;52.738;8.316;2023-09-30T14:47:01;14.10;;;3.33;;
6185;SDS011;3126;52.738;8.316;2023-09-30T14:52:04;6.47;;;2.08;;
6185;SDS011;3126;52.738;8.316;2023-09-30T14:57:05;6.30;;;1.98;;
6185;SDS011;3126;52.738;8.316;2023-09-30T15:02:06;6.70;;;2.13;;
6185;SDS011;3126;52.738;8.316;2023-09-30T15:07:10;4.78;;;2.03;;
6185;SDS011;3126;52.738;8.316;2023-09-30T15:12:12;4.95;;;2.22;;
6185;SDS011;3126;52.738;8.316;2023-09-30T15:17:13;8.45;;;2.83;;
6185;SDS011;3126;52.738;8.316;2023-09-30T15:22:13;2.78;;;1.92;;
6185;SDS011;3126;52.738;8.316;2023-09-30T15:27:15;5.28;;;2.25;;
6185;SDS011;3126;52.738;8.316;2023-09-30T15:32:15;6.88;;;2.15;;
6185;SDS011;3126;52.738;8.316;2023-09-30T15:37:17;7.22;;;2.30;;
6185;SDS011;3126;52.738;8.316;2023-09-30T15:42:18;8.52;;;2.17;;
6185;SDS011;3126;52.738;8.316;2023-09-30T15:47:19;5.13;;;2.42;;
6185;SDS011;3126;52.738;8.316;2023-09-30T15:52:20;3.78;;;1.88;;
6185;SDS011;3126;52.738;8.316;2023-09-30T15:57:21;6.05;;;2.47;;
6185;SDS011;3126;52.738;8.316;2023-09-30T16:02:22;5.30;;;2.35;;
6185;SDS011;3126;52.738;8.316;2023-09-30T16:07:23;7.80;;;2.83;;
6185;SDS011;3126;52.738;8.316;2023-09-30T16:12:24;7.90;;;2.70;;
6185;SDS011;3126;52.738;8.316;2023-09-30T16:17:25;8.55;;;3.92;;
6185;SDS011;3126;52.738;8.316;2023-09-30T16:22:26;6.82;;;2.65;;
6185;SDS011;3126;52.738;8.316;2023-09-30T16:27:27;5.15;;;2.50;;
6185;SDS011;3126;52.738;8.316;2023-09-30T16:32:29;8.10;;;2.95;;
6185;SDS011;3126;52.738;8.316;2023-09-30T16:37:31;5.43;;;2.50;;
6185;SDS011;3126;52.738;8.316;2023-09-30T16:42:32;5.82;;;2.85;;
6185;SDS011;3126;52.738;8.316;2023-09-30T16:47:33;7.18;;;3.10;;
6185;SDS011;3126;52.738;8.316;2023-09-30T16:52:34;5.53;;;3.10;;
6185;SDS011;3126;52.738;8.316;2023-09-30T16:57:35;5.32;;;2.70;;
6185;SDS011;3126;52.738;8.316;2023-09-30T17:02:36;4.82;;;3.25;;
6185;SDS011;3126;52.738;8.316;2023-09-30T17:07:37;9.93;;;4.05;;
6185;SDS011;3126;52.738;8.316;2023-09-30T17:12:39;8.13;;;4.60;;
6185;SDS011;3126;52.738;8.316;2023-09-30T17:17:40;7.25;;;3.17;;
6185;SDS011;3126;52.738;8.316;2023-09-30T17:22:41;9.02;;;4.18;;
6185;SDS011;3126;52.738;8.316;2023-09-30T17:27:42;7.15;;;3.38;;
6185;SDS011;3126;52.738;8.316;2023-09-30T17:32:43;6.40;;;2.95;;
6185;SDS011;3126;52.738;8.316;2023-09-30T17:37:44;4.38;;;2.85;;
6185;SDS011;3126;52.738;8.316;2023-09-30T17:42:47;7.60;;;3.28;;
6185;SDS011;3126;52.738;8.316;2023-09-30T17:47:48;9.60;;;4.47;;
6185;SDS011;3126;52.738;8.316;2023-09-30T17:52:50;7.88;;;4.60;;
6185;SDS011;3126;52.738;8.316;2023-09-30T17:57:51;7.25;;;3.67;;
6185;SDS011;3126;52.738;8.316;2023-09-30T18:02:51;8.10;;;3.78;;
6185;SDS011;3126;52.738;8.316;2023-09-30T18:07:52;8.45;;;3.20;;
6185;SDS011;3126;52.738;8.316;2023-09-30T18:12:54;9.27;;;3.08;;
6185;SDS011;3126;52.738;8.316;2023-09-30T18:17:55;8.60;;;3.65;;
6185;SDS011;3126;52.738;8.316;2023-09-30T18:22:56;6.90;;;3.03;;
6185;SDS011;3126;52.738;8.316;2023-09-30T18:27:57;7.60;;;3.40;;
6185;SDS011;3126;52.738;8.316;2023-09-30T18:32:58;6.18;;;2.85;;
6185;SDS011;3126;52.738;8.316;2023-09-30T18:37:59;5.32;;;3.60;;
6185;SDS011;3126;52.738;8.316;2023-09-30T18:43:03;7.03;;;3.95;;
6185;SDS011;3126;52.738;8.316;2023-09-30T18:48:10;11.68;;;4.63;;
6185;SDS011;3126;52.738;8.316;2023-09-30T18:53:12;11.10;;;5.65;;
6185;SDS011;3126;52.738;8.316;2023-09-30T18:58:14;9.30;;;5.30;;
6185;SDS011;3126;52.738;8.316;2023-09-30T19:03:15;7.60;;;4.13;;
6185;SDS011;3126;52.738;8.316;2023-09-30T19:08:16;7.82;;;3.88;;
6185;SDS011;3126;52.738;8.316;2023-09-30T19:13:17;8.70;;;4.07;;
6185;SDS011;3126;52.738;8.316;2023-09-30T19:18:18;8.02;;;3.80;;
6185;SDS011;3126;52.738;8.316;2023-09-30T19:23:19;9.07;;;3.72;;
6185;SDS011;3126;52.738;8.316;2023-09-30T19:28:20;7.55;;;3.83;;
6185;SDS011;3126;52.738;8.316;2023-09-30T19:33:21;8.88;;;4.28;;
6185;SDS011;3126;52.738;8.316;2023-09-30T19:38:22;12.35;;;4.35;;
6185;SDS011;3126;52.738;8.316;2023-09-30T19:43:23;6.53;;;4.45;;
6185;SDS011;3126;52.738;8.316;2023-09-30T19:48:24;5.85;;;3.60;;
6185;SDS011;3126;52.738;8.316;2023-09-30T19:53:25;10.80;;;5.32;;
6185;SDS011;3126;52.738;8.316;2023-09-30T19:58:26;10.10;;;4.50;;
6185;SDS011;3126;52.738;8.316;2023-09-30T20:03:27;8.10;;;4.78;;
6185;SDS011;3126;52.738;8.316;2023-09-30T20:08:28;9.63;;;4.38;;
6185;SDS011;3126;52.738;8.316;2023-09-30T20:13:33;8.15;;;4.15;;
6185;SDS011;3126;52.738;8.316;2023-09-30T20:18:36;10.57;;;4.65;;
6185;SDS011;3126;52.738;8.316;2023-09-30T20:23:37;11.45;;;4.63;;
6185;SDS011;3126;52.738;8.316;2023-09-30T20:28:39;11.10;;;4.68;;
6185;SDS011;3126;52.738;8.316;2023-09-30T20:33:40;11.15;;;5.40;;
6185;SDS011;3126;52.738;8.316;2023-09-30T20:38:42;7.78;;;4.63;;
6185;SDS011;3126;52.738;8.316;2023-09-30T20:43:43;7.78;;;4.32;;
6185;SDS011;3126;52.738;8.316;2023-09-30T20:48:44;8.23;;;4.55;;
6185;SDS011;3126;52.738;8.316;2023-09-30T20:53:47;9.10;;;5.20;;
6185;SDS011;3126;52.738;8.316;2023-09-30T20:58:48;7.35;;;4.72;;
6185;SDS011;3126;52.738;8.316;2023-09-30T21:03:50;9.35;;;4.93;;
6185;SDS011;3126;52.738;8.316;2023-09-30T21:08:51;8.25;;;5.13;;
6185;SDS011;3126;52.738;8.316;2023-09-30T21:13:52;7.50;;;5.15;;
6185;SDS011;3126;52.738;8.316;2023-09-30T21:18:53;8.82;;;4.70;;
6185;SDS011;3126;52.738;8.316;2023-09-30T21:23:54;8.68;;;5.35;;
6185;SDS011;3126;52.738;8.316;2023-09-30T21:28:55;7.72;;;5.32;;
6185;SDS011;3126;52.738;8.316;2023-09-30T21:33:56;9.35;;;5.82;;
6185;SDS011;3126;52.738;8.316;2023-09-30T21:38:57;11.48;;;6.20;;
6185;SDS011;3126;52.738;8.316;2023-09-30T21:43:58;10.15;;;5.90;;
6185;SDS011;3126;52.738;8.316;2023-09-30T21:48:59;8.45;;;5.88;;
6185;SDS011;3126;52.738;8.316;2023-09-30T21:54:00;10.13;;;5.50;;
6185;SDS011;3126;52.738;8.316;2023-09-30T21:59:01;7.57;;;5.65;;
6185;SDS011;3126;52.738;8.316;2023-09-30T22:04:02;8.10;;;5.53;;
6185;SDS011;3126;52.738;8.316;2023-09-30T22:09:04;11.55;;;6.57;;
6185;SDS011;3126;52.738;8.316;2023-09-30T22:14:05;10.95;;;6.10;;
6185;SDS011;3126;52.738;8.316;2023-09-30T22:19:06;8.48;;;5.70;;
6185;SDS011;3126;52.738;8.316;2023-09-30T22:24:07;10.98;;;6.35;;
6185;SDS011;3126;52.738;8.316;2023-09-30T22:29:08;9.80;;;5.88;;
6185;SDS011;3126;52.738;8.316;2023-09-30T22:34:09;8.27;;;6.25;;
6185;SDS011;3126;52.738;8.316;2023-09-30T22:39:10;9.93;;;6.55;;
6185;SDS011;3126;52.738;8.316;2023-09-30T22:44:11;8.65;;;6.50;;
6185;SDS011;3126;52.738;8.316;2023-09-30T22:49:12;11.30;;;7.20;;
6185;SDS011;3126;52.738;8.316;2023-09-30T22:54:13;12.35;;;7.22;;
6185;SDS011;3126;52.738;8.316;2023-09-30T22:59:15;13.40;;;8.52;;
6185;SDS011;3126;52.738;8.316;2023-09-30T23:04:16;10.43;;;6.53;;
6185;SDS011;3126;52.738;8.316;2023-09-30T23:09:17;11.57;;;7.28;;
6185;SDS011;3126;52.738;8.316;2023-09-30T23:14:21;8.50;;;7.45;;
6185;SDS011;3126;52.738;8.316;2023-09-30T23:19:23;10.02;;;7.55;;
6185;SDS011;3126;52.738;8.316;2023-09-30T23:24:25;13.07;;;7.63;;
6185;SDS011;3126;52.738;8.316;2023-09-30T23:29:26;12.30;;;7.63;;
6185;SDS011;3126;52.738;8.316;2023-09-30T23:34:27;13.93;;;8.25;;
6185;SDS011;3126;52.738;8.316;2023-09-30T23:39:29;10.98;;;7.93;;
6185;SDS011;3126;52.738;8.316;2023-09-30T23:44:31;12.25;;;7.70;;
6185;SDS011;3126;52.738;8.316;2023-09-30T23:49:35;13.15;;;8.75;;
6185;SDS011;3126;52.738;8.316;2023-09-30T23:54:37;13.77;;;8.90;;
6185;SDS011;3126;52.738;8.316;2023-09-30T23:59:39;10.68;;;8.02;;
